sensor_id;sensor_type;location;lat;lon;timestamp;temperature;humidity
28010;DHT22;15334;49.494;8.410;2023-02-01T00:01:29;6.60;99.90
28010;DHT22;15334;49.494;8.410;2023-02-01T00:03:57;6.70;99.90
28010;DHT22;15334;49.494;8.410;2023-02-01T00:06:25;6.60;99.90
28010;DHT22;15334;49.494;8.410;2023-02-01T00:08:53;6.60;99.90
28010;DHT22;15334;49.494;8.410;2023-02-01T00:11:23;6.40;99.90
28010;DHT22;15334;49.494;8.410;2023-02-01T00:13:51;6.40;99.90
28010;DHT22;15334;49.494;8.410;2023-02-01T00:16:21;6.30;99.90
28010;DHT22;15334;49.494;8.410;2023-02-01T00:18:51;6.30;99.90
28010;DHT22;15334;49.494;8.410;2023-02-01T00:21:22;6.20;99.90
28010;DHT22;15334;49.494;8.410;2023-02-01T00:23:50;6.20;99.90
28010;DHT22;15334;49.494;8.410;2023-02-01T00:26:20;6.20;99.90
28010;DHT22;15334;49.494;8.410;2023-02-01T00:28:50;6.10;99.90
28010;DHT22;15334;49.494;8.410;2023-02-01T00:31:18;6.10;99.90
28010;DHT22;15334;49.494;8.410;2023-02-01T00:33:47;6.10;99.90
28010;DHT22;15334;49.494;8.410;2023-02-01T00:36:15;6.10;99.90
28010;DHT22;15334;49.494;8.410;2023-02-01T00:38:44;6.10;99.90
28010;DHT22;15334;49.494;8.410;2023-02-01T00:41:14;6.20;99.90
28010;DHT22;15334;49.494;8.410;2023-02-01T00:43:43;6.20;99.90
28010;DHT22;15334;49.494;8.410;2023-02-01T00:46:15;6.20;99.90
28010;DHT22;15334;49.494;8.410;2023-02-01T00:48:44;6.20;99.90
28010;DHT22;15334;49.494;8.410;2023-02-01T00:51:14;6.30;99.90
28010;DHT22;15334;49.494;8.410;2023-02-01T00:53:42;6.20;99.90
28010;DHT22;15334;49.494;8.410;2023-02-01T00:56:11;6.30;99.90
28010;DHT22;15334;49.494;8.410;2023-02-01T00:58:39;6.30;99.90
28010;DHT22;15334;49.494;8.410;2023-02-01T01:01:15;6.30;99.90
28010;DHT22;15334;49.494;8.410;2023-02-01T01:03:45;6.40;99.90
28010;DHT22;15334;49.494;8.410;2023-02-01T01:06:15;6.40;99.90
28010;DHT22;15334;49.494;8.410;2023-02-01T01:08:43;6.40;99.90
28010;DHT22;15334;49.494;8.410;2023-02-01T01:11:14;6.40;99.90
28010;DHT22;15334;49.494;8.410;2023-02-01T01:13:42;6.40;99.90
28010;DHT22;15334;49.494;8.410;2023-02-01T01:16:11;6.40;99.90
28010;DHT22;15334;49.494;8.410;2023-02-01T01:18:42;6.40;99.90
28010;DHT22;15334;49.494;8.410;2023-02-01T01:21:13;6.40;99.90
28010;DHT22;15334;49.494;8.410;2023-02-01T01:23:42;6.40;99.90
28010;DHT22;15334;49.494;8.410;2023-02-01T01:26:12;6.40;99.90
28010;DHT22;15334;49.494;8.410;2023-02-01T01:28:41;6.30;99.90
28010;DHT22;15334;49.494;8.410;2023-02-01T01:31:10;6.30;99.90
28010;DHT22;15334;49.494;8.410;2023-02-01T01:33:39;6.30;99.90
28010;DHT22;15334;49.494;8.410;2023-02-01T01:36:08;6.40;99.90
28010;DHT22;15334;49.494;8.410;2023-02-01T01:38:37;6.40;99.90
28010;DHT22;15334;49.494;8.410;2023-02-01T01:41:06;6.40;99.90
28010;DHT22;15334;49.494;8.410;2023-02-01T01:43:54;6.40;99.90
28010;DHT22;15334;49.494;8.410;2023-02-01T01:46:25;6.50;99.90
28010;DHT22;15334;49.494;8.410;2023-02-01T01:49:02;6.40;99.90
28010;DHT22;15334;49.494;8.410;2023-02-01T01:51:34;6.40;99.90
28010;DHT22;15334;49.494;8.410;2023-02-01T01:54:08;6.40;99.90
28010;DHT22;15334;49.494;8.410;2023-02-01T01:56:38;6.40;99.90
28010;DHT22;15334;49.494;8.410;2023-02-01T01:59:08;6.40;99.90
28010;DHT22;15334;49.494;8.410;2023-02-01T02:01:37;6.40;99.90
28010;DHT22;15334;49.494;8.410;2023-02-01T02:04:06;6.40;99.90
28010;DHT22;15334;49.494;8.410;2023-02-01T02:06:40;6.40;99.90
28010;DHT22;15334;49.494;8.410;2023-02-01T02:09:15;6.50;99.90
28010;DHT22;15334;49.494;8.410;2023-02-01T02:11:43;6.50;99.90
28010;DHT22;15334;49.494;8.410;2023-02-01T02:14:14;6.50;99.90
28010;DHT22;15334;49.494;8.410;2023-02-01T02:16:55;6.50;99.90
28010;DHT22;15334;49.494;8.410;2023-02-01T02:20:00;6.50;99.90
28010;DHT22;15334;49.494;8.410;2023-02-01T02:23:03;6.50;99.90
28010;DHT22;15334;49.494;8.410;2023-02-01T02:25:55;6.40;99.90
28010;DHT22;15334;49.494;8.410;2023-02-01T02:28:51;6.40;99.90
28010;DHT22;15334;49.494;8.410;2023-02-01T02:34:29;6.40;99.90
28010;DHT22;15334;49.494;8.410;2023-02-01T02:37:06;6.50;99.90
28010;DHT22;15334;49.494;8.410;2023-02-01T02:39:44;6.50;99.90
28010;DHT22;15334;49.494;8.410;2023-02-01T02:42:24;6.50;99.90
28010;DHT22;15334;49.494;8.410;2023-02-01T02:45:15;6.50;99.90
28010;DHT22;15334;49.494;8.410;2023-02-01T02:48:08;6.50;99.90
28010;DHT22;15334;49.494;8.410;2023-02-01T02:50:41;6.40;99.90
28010;DHT22;15334;49.494;8.410;2023-02-01T02:53:32;6.50;99.90
28010;DHT22;15334;49.494;8.410;2023-02-01T02:56:20;6.50;99.90
28010;DHT22;15334;49.494;8.410;2023-02-01T02:59:07;6.40;99.90
28010;DHT22;15334;49.494;8.410;2023-02-01T03:01:54;6.50;99.90
28010;DHT22;15334;49.494;8.410;2023-02-01T03:04:40;6.50;99.90
28010;DHT22;15334;49.494;8.410;2023-02-01T03:07:15;6.50;99.90
28010;DHT22;15334;49.494;8.410;2023-02-01T03:10:07;6.50;99.90
28010;DHT22;15334;49.494;8.410;2023-02-01T03:12:40;6.50;99.90
28010;DHT22;15334;49.494;8.410;2023-02-01T03:15:28;6.50;99.90
28010;DHT22;15334;49.494;8.410;2023-02-01T03:18:01;6.50;99.90
28010;DHT22;15334;49.494;8.410;2023-02-01T03:20:34;6.50;99.90
28010;DHT22;15334;49.494;8.410;2023-02-01T03:23:04;6.50;99.90
28010;DHT22;15334;49.494;8.410;2023-02-01T03:25:35;6.40;99.90
28010;DHT22;15334;49.494;8.410;2023-02-01T03:28:06;6.40;99.90
28010;DHT22;15334;49.494;8.410;2023-02-01T03:30:37;6.50;99.90
28010;DHT22;15334;49.494;8.410;2023-02-01T03:33:13;6.50;99.90
28010;DHT22;15334;49.494;8.410;2023-02-01T03:35:55;6.50;99.90
28010;DHT22;15334;49.494;8.410;2023-02-01T03:38:28;6.40;99.90
28010;DHT22;15334;49.494;8.410;2023-02-01T03:41:02;6.50;99.90
28010;DHT22;15334;49.494;8.410;2023-02-01T03:43:34;6.50;99.90
28010;DHT22;15334;49.494;8.410;2023-02-01T03:46:10;6.50;99.90
28010;DHT22;15334;49.494;8.410;2023-02-01T03:48:40;6.40;99.90
28010;DHT22;15334;49.494;8.410;2023-02-01T03:51:10;6.50;99.90
28010;DHT22;15334;49.494;8.410;2023-02-01T03:53:43;6.40;99.90
28010;DHT22;15334;49.494;8.410;2023-02-01T03:56:16;6.40;99.90
28010;DHT22;15334;49.494;8.410;2023-02-01T03:58:45;6.40;99.90
28010;DHT22;15334;49.494;8.410;2023-02-01T04:01:27;6.50;99.90
28010;DHT22;15334;49.494;8.410;2023-02-01T04:03:55;6.50;99.90
28010;DHT22;15334;49.494;8.410;2023-02-01T04:06:24;6.50;99.90
28010;DHT22;15334;49.494;8.410;2023-02-01T04:08:52;6.50;99.90
28010;DHT22;15334;49.494;8.410;2023-02-01T04:11:22;6.50;99.90
28010;DHT22;15334;49.494;8.410;2023-02-01T04:13:50;6.50;99.90
28010;DHT22;15334;49.494;8.410;2023-02-01T04:16:18;6.50;99.90
28010;DHT22;15334;49.494;8.410;2023-02-01T04:18:46;6.50;99.90
28010;DHT22;15334;49.494;8.410;2023-02-01T04:21:13;6.50;99.90
28010;DHT22;15334;49.494;8.410;2023-02-01T04:23:41;6.50;99.90
28010;DHT22;15334;49.494;8.410;2023-02-01T04:26:09;6.50;99.90
28010;DHT22;15334;49.494;8.410;2023-02-01T04:28:39;6.60;99.90
28010;DHT22;15334;49.494;8.410;2023-02-01T04:31:06;6.60;99.90
28010;DHT22;15334;49.494;8.410;2023-02-01T04:33:35;6.60;99.90
28010;DHT22;15334;49.494;8.410;2023-02-01T04:36:03;6.60;99.90
28010;DHT22;15334;49.494;8.410;2023-02-01T04:38:31;6.60;99.90
28010;DHT22;15334;49.494;8.410;2023-02-01T04:40:59;6.70;99.90
28010;DHT22;15334;49.494;8.410;2023-02-01T04:43:27;6.70;99.90
28010;DHT22;15334;49.494;8.410;2023-02-01T04:45:57;6.70;99.90
28010;DHT22;15334;49.494;8.410;2023-02-01T04:48:25;6.70;99.90
28010;DHT22;15334;49.494;8.410;2023-02-01T04:50:54;6.70;99.90
28010;DHT22;15334;49.494;8.410;2023-02-01T04:53:22;6.70;99.90
28010;DHT22;15334;49.494;8.410;2023-02-01T04:55:50;6.70;99.90
28010;DHT22;15334;49.494;8.410;2023-02-01T04:58:22;6.70;99.90
28010;DHT22;15334;49.494;8.410;2023-02-01T05:00:50;6.80;99.90
28010;DHT22;15334;49.494;8.410;2023-02-01T05:03:20;6.70;99.90
28010;DHT22;15334;49.494;8.410;2023-02-01T05:05:49;6.80;99.90
28010;DHT22;15334;49.494;8.410;2023-02-01T05:08:20;6.80;99.90
28010;DHT22;15334;49.494;8.410;2023-02-01T05:10:49;6.80;99.90
28010;DHT22;15334;49.494;8.410;2023-02-01T05:13:20;6.80;99.90
28010;DHT22;15334;49.494;8.410;2023-02-01T05:16:06;6.80;99.90
28010;DHT22;15334;49.494;8.410;2023-02-01T05:18:35;6.80;99.90
28010;DHT22;15334;49.494;8.410;2023-02-01T05:21:04;6.70;99.90
28010;DHT22;15334;49.494;8.410;2023-02-01T05:23:33;6.70;99.90
28010;DHT22;15334;49.494;8.410;2023-02-01T05:26:22;6.60;99.90
28010;DHT22;15334;49.494;8.410;2023-02-01T05:28:56;6.50;99.90
28010;DHT22;15334;49.494;8.410;2023-02-01T05:31:24;6.40;99.90
28010;DHT22;15334;49.494;8.410;2023-02-01T05:33:54;6.40;99.90
28010;DHT22;15334;49.494;8.410;2023-02-01T05:36:22;6.40;99.90
28010;DHT22;15334;49.494;8.410;2023-02-01T05:38:50;6.40;99.90
28010;DHT22;15334;49.494;8.410;2023-02-01T05:41:20;6.30;99.90
28010;DHT22;15334;49.494;8.410;2023-02-01T05:43:53;6.30;99.90
28010;DHT22;15334;49.494;8.410;2023-02-01T05:46:23;6.30;99.90
28010;DHT22;15334;49.494;8.410;2023-02-01T05:48:51;6.40;99.90
28010;DHT22;15334;49.494;8.410;2023-02-01T05:51:21;6.40;99.90
28010;DHT22;15334;49.494;8.410;2023-02-01T05:53:49;6.40;99.90
28010;DHT22;15334;49.494;8.410;2023-02-01T05:56:18;6.40;99.90
28010;DHT22;15334;49.494;8.410;2023-02-01T05:58:48;6.40;99.90
28010;DHT22;15334;49.494;8.410;2023-02-01T06:01:16;6.30;99.90
28010;DHT22;15334;49.494;8.410;2023-02-01T06:03:45;6.30;99.90
28010;DHT22;15334;49.494;8.410;2023-02-01T06:06:13;6.30;99.90
28010;DHT22;15334;49.494;8.410;2023-02-01T06:08:42;6.30;99.90
28010;DHT22;15334;49.494;8.410;2023-02-01T06:11:10;6.30;99.90
28010;DHT22;15334;49.494;8.410;2023-02-01T06:13:57;6.30;99.90
28010;DHT22;15334;49.494;8.410;2023-02-01T06:16:26;6.30;99.90
28010;DHT22;15334;49.494;8.410;2023-02-01T06:18:55;6.20;99.90
28010;DHT22;15334;49.494;8.410;2023-02-01T06:21:23;6.20;99.90
28010;DHT22;15334;49.494;8.410;2023-02-01T06:23:53;6.10;99.90
28010;DHT22;15334;49.494;8.410;2023-02-01T06:26:21;6.20;99.90
28010;DHT22;15334;49.494;8.410;2023-02-01T06:28:49;6.20;99.90
28010;DHT22;15334;49.494;8.410;2023-02-01T06:31:17;6.10;99.90
28010;DHT22;15334;49.494;8.410;2023-02-01T06:33:45;6.20;99.90
28010;DHT22;15334;49.494;8.410;2023-02-01T06:36:15;6.20;99.90
28010;DHT22;15334;49.494;8.410;2023-02-01T06:38:45;6.10;99.90
28010;DHT22;15334;49.494;8.410;2023-02-01T06:41:15;6.20;99.90
28010;DHT22;15334;49.494;8.410;2023-02-01T06:43:43;6.20;99.90
28010;DHT22;15334;49.494;8.410;2023-02-01T06:46:13;6.20;99.90
28010;DHT22;15334;49.494;8.410;2023-02-01T06:48:41;6.20;99.90
28010;DHT22;15334;49.494;8.410;2023-02-01T06:51:18;6.20;99.90
28010;DHT22;15334;49.494;8.410;2023-02-01T06:53:46;6.30;99.90
28010;DHT22;15334;49.494;8.410;2023-02-01T06:56:16;6.20;99.90
28010;DHT22;15334;49.494;8.410;2023-02-01T06:58:44;6.30;99.90
28010;DHT22;15334;49.494;8.410;2023-02-01T07:01:13;6.40;99.90
28010;DHT22;15334;49.494;8.410;2023-02-01T07:03:42;6.40;99.90
28010;DHT22;15334;49.494;8.410;2023-02-01T07:06:10;6.40;99.90
28010;DHT22;15334;49.494;8.410;2023-02-01T07:08:38;6.40;99.90
28010;DHT22;15334;49.494;8.410;2023-02-01T07:11:08;6.40;99.90
28010;DHT22;15334;49.494;8.410;2023-02-01T07:13:38;6.40;99.90
28010;DHT22;15334;49.494;8.410;2023-02-01T07:16:08;6.40;99.90
28010;DHT22;15334;49.494;8.410;2023-02-01T07:18:37;6.40;99.90
28010;DHT22;15334;49.494;8.410;2023-02-01T07:21:05;6.40;99.90
28010;DHT22;15334;49.494;8.410;2023-02-01T07:23:34;6.40;99.90
28010;DHT22;15334;49.494;8.410;2023-02-01T07:26:03;6.40;99.90
28010;DHT22;15334;49.494;8.410;2023-02-01T07:28:33;6.30;99.90
28010;DHT22;15334;49.494;8.410;2023-02-01T07:31:07;6.20;99.90
28010;DHT22;15334;49.494;8.410;2023-02-01T07:33:35;6.20;99.90
28010;DHT22;15334;49.494;8.410;2023-02-01T07:36:05;6.20;99.90
28010;DHT22;15334;49.494;8.410;2023-02-01T07:38:33;6.10;99.90
28010;DHT22;15334;49.494;8.410;2023-02-01T07:41:04;6.20;99.90
28010;DHT22;15334;49.494;8.410;2023-02-01T07:43:32;6.20;99.90
28010;DHT22;15334;49.494;8.410;2023-02-01T07:46:02;6.10;99.90
28010;DHT22;15334;49.494;8.410;2023-02-01T07:48:32;6.10;99.90
28010;DHT22;15334;49.494;8.410;2023-02-01T07:51:04;6.10;99.90
28010;DHT22;15334;49.494;8.410;2023-02-01T07:53:33;6.10;99.90
28010;DHT22;15334;49.494;8.410;2023-02-01T07:56:09;6.10;99.90
28010;DHT22;15334;49.494;8.410;2023-02-01T07:58:38;6.10;99.90
28010;DHT22;15334;49.494;8.410;2023-02-01T08:01:06;6.10;99.90
28010;DHT22;15334;49.494;8.410;2023-02-01T08:03:54;6.20;99.90
28010;DHT22;15334;49.494;8.410;2023-02-01T08:06:23;6.20;99.90
28010;DHT22;15334;49.494;8.410;2023-02-01T08:08:52;6.30;99.90
28010;DHT22;15334;49.494;8.410;2023-02-01T08:11:21;6.40;99.90
28010;DHT22;15334;49.494;8.410;2023-02-01T08:13:49;6.50;99.90
28010;DHT22;15334;49.494;8.410;2023-02-01T08:16:19;6.60;99.90
28010;DHT22;15334;49.494;8.410;2023-02-01T08:18:47;6.70;99.90
28010;DHT22;15334;49.494;8.410;2023-02-01T08:21:18;6.80;99.90
28010;DHT22;15334;49.494;8.410;2023-02-01T08:23:48;6.90;99.90
28010;DHT22;15334;49.494;8.410;2023-02-01T08:26:18;6.90;99.90
28010;DHT22;15334;49.494;8.410;2023-02-01T08:28:48;7.00;99.90
28010;DHT22;15334;49.494;8.410;2023-02-01T08:31:18;7.10;99.90
28010;DHT22;15334;49.494;8.410;2023-02-01T08:33:49;7.10;99.90
28010;DHT22;15334;49.494;8.410;2023-02-01T08:36:18;7.20;99.90
28010;DHT22;15334;49.494;8.410;2023-02-01T08:38:47;7.20;99.90
28010;DHT22;15334;49.494;8.410;2023-02-01T08:41:17;7.20;99.90
28010;DHT22;15334;49.494;8.410;2023-02-01T08:43:45;7.20;99.90
28010;DHT22;15334;49.494;8.410;2023-02-01T08:46:14;7.30;99.90
28010;DHT22;15334;49.494;8.410;2023-02-01T08:48:43;7.20;99.90
28010;DHT22;15334;49.494;8.410;2023-02-01T08:51:13;7.30;99.90
28010;DHT22;15334;49.494;8.410;2023-02-01T08:53:42;7.30;99.90
28010;DHT22;15334;49.494;8.410;2023-02-01T08:56:12;7.30;99.90
28010;DHT22;15334;49.494;8.410;2023-02-01T08:58:40;7.30;99.90
28010;DHT22;15334;49.494;8.410;2023-02-01T09:01:10;7.40;99.90
28010;DHT22;15334;49.494;8.410;2023-02-01T09:03:39;7.40;99.90
28010;DHT22;15334;49.494;8.410;2023-02-01T09:06:10;7.40;99.90
28010;DHT22;15334;49.494;8.410;2023-02-01T09:08:39;7.50;99.90
28010;DHT22;15334;49.494;8.410;2023-02-01T09:11:12;7.50;99.90
28010;DHT22;15334;49.494;8.410;2023-02-01T09:13:41;7.60;99.90
28010;DHT22;15334;49.494;8.410;2023-02-01T09:16:09;7.70;99.90
28010;DHT22;15334;49.494;8.410;2023-02-01T09:18:37;7.80;99.90
28010;DHT22;15334;49.494;8.410;2023-02-01T09:21:25;7.90;99.90
28010;DHT22;15334;49.494;8.410;2023-02-01T09:23:53;7.90;99.90
28010;DHT22;15334;49.494;8.410;2023-02-01T09:26:22;7.90;99.90
28010;DHT22;15334;49.494;8.410;2023-02-01T09:28:58;7.90;99.90
28010;DHT22;15334;49.494;8.410;2023-02-01T09:31:26;7.90;99.90
28010;DHT22;15334;49.494;8.410;2023-02-01T09:33:55;7.90;99.90
28010;DHT22;15334;49.494;8.410;2023-02-01T09:36:25;7.90;99.90
28010;DHT22;15334;49.494;8.410;2023-02-01T09:38:55;7.90;99.90
28010;DHT22;15334;49.494;8.410;2023-02-01T09:41:35;8.00;99.90
28010;DHT22;15334;49.494;8.410;2023-02-01T09:44:14;8.10;99.90
28010;DHT22;15334;49.494;8.410;2023-02-01T09:46:46;8.10;99.90
28010;DHT22;15334;49.494;8.410;2023-02-01T09:49:18;8.20;99.90
28010;DHT22;15334;49.494;8.410;2023-02-01T09:51:49;8.20;99.90
28010;DHT22;15334;49.494;8.410;2023-02-01T09:54:20;8.20;99.90
28010;DHT22;15334;49.494;8.410;2023-02-01T09:56:54;8.20;99.90
28010;DHT22;15334;49.494;8.410;2023-02-01T09:59:31;8.30;99.90
28010;DHT22;15334;49.494;8.410;2023-02-01T10:02:02;8.30;99.90
28010;DHT22;15334;49.494;8.410;2023-02-01T10:04:31;8.30;99.90
28010;DHT22;15334;49.494;8.410;2023-02-01T10:07:14;8.20;99.90
28010;DHT22;15334;49.494;8.410;2023-02-01T10:09:58;8.20;99.90
28010;DHT22;15334;49.494;8.410;2023-02-01T10:12:53;8.20;99.90
28010;DHT22;15334;49.494;8.410;2023-02-01T10:15:34;8.30;99.90
28010;DHT22;15334;49.494;8.410;2023-02-01T10:18:22;8.30;99.90
28010;DHT22;15334;49.494;8.410;2023-02-01T10:20:59;8.10;99.90
28010;DHT22;15334;49.494;8.410;2023-02-01T10:23:46;8.00;99.90
28010;DHT22;15334;49.494;8.410;2023-02-01T10:26:22;8.10;99.90
28010;DHT22;15334;49.494;8.410;2023-02-01T10:28:54;8.20;99.90
28010;DHT22;15334;49.494;8.410;2023-02-01T10:31:26;8.20;99.90
28010;DHT22;15334;49.494;8.410;2023-02-01T10:33:58;8.20;99.90
28010;DHT22;15334;49.494;8.410;2023-02-01T10:36:32;8.10;99.90
28010;DHT22;15334;49.494;8.410;2023-02-01T10:39:03;8.20;99.90
28010;DHT22;15334;49.494;8.410;2023-02-01T10:41:39;8.20;99.90
28010;DHT22;15334;49.494;8.410;2023-02-01T10:44:13;8.20;99.90
28010;DHT22;15334;49.494;8.410;2023-02-01T10:46:41;8.30;99.90
28010;DHT22;15334;49.494;8.410;2023-02-01T10:49:16;8.30;99.90
28010;DHT22;15334;49.494;8.410;2023-02-01T10:51:48;8.30;99.90
28010;DHT22;15334;49.494;8.410;2023-02-01T10:54:19;8.30;99.90
28010;DHT22;15334;49.494;8.410;2023-02-01T10:56:48;8.30;99.90
28010;DHT22;15334;49.494;8.410;2023-02-01T10:59:19;8.30;99.90
28010;DHT22;15334;49.494;8.410;2023-02-01T11:01:49;8.30;99.90
28010;DHT22;15334;49.494;8.410;2023-02-01T11:04:19;8.30;99.90
28010;DHT22;15334;49.494;8.410;2023-02-01T11:06:49;8.30;99.90
28010;DHT22;15334;49.494;8.410;2023-02-01T11:09:20;8.40;99.90
28010;DHT22;15334;49.494;8.410;2023-02-01T11:11:57;8.40;99.90
28010;DHT22;15334;49.494;8.410;2023-02-01T11:14:36;8.40;99.90
28010;DHT22;15334;49.494;8.410;2023-02-01T11:17:21;8.40;99.90
28010;DHT22;15334;49.494;8.410;2023-02-01T11:19:57;8.40;99.90
28010;DHT22;15334;49.494;8.410;2023-02-01T11:22:27;8.50;99.90
28010;DHT22;15334;49.494;8.410;2023-02-01T11:24:56;8.50;99.90
28010;DHT22;15334;49.494;8.410;2023-02-01T11:27:25;8.50;99.90
28010;DHT22;15334;49.494;8.410;2023-02-01T11:29:59;8.50;99.90
28010;DHT22;15334;49.494;8.410;2023-02-01T11:32:28;8.50;99.90
28010;DHT22;15334;49.494;8.410;2023-02-01T11:35:00;8.50;99.90
28010;DHT22;15334;49.494;8.410;2023-02-01T11:37:31;8.50;99.90
28010;DHT22;15334;49.494;8.410;2023-02-01T11:40:02;8.30;99.90
28010;DHT22;15334;49.494;8.410;2023-02-01T11:42:31;8.20;99.90
28010;DHT22;15334;49.494;8.410;2023-02-01T11:45:20;8.30;99.90
28010;DHT22;15334;49.494;8.410;2023-02-01T11:47:52;8.30;99.90
28010;DHT22;15334;49.494;8.410;2023-02-01T11:50:28;8.20;99.90
28010;DHT22;15334;49.494;8.410;2023-02-01T11:53:13;8.20;99.90
28010;DHT22;15334;49.494;8.410;2023-02-01T12:01:37;8.60;99.90
28010;DHT22;15334;49.494;8.410;2023-02-01T12:04:31;8.60;99.90
28010;DHT22;15334;49.494;8.410;2023-02-01T12:07:13;8.60;99.90
28010;DHT22;15334;49.494;8.410;2023-02-01T12:09:55;8.60;99.90
28010;DHT22;15334;49.494;8.410;2023-02-01T12:12:32;8.50;99.90
28010;DHT22;15334;49.494;8.410;2023-02-01T12:15:20;8.40;99.90
28010;DHT22;15334;49.494;8.410;2023-02-01T12:18:08;8.30;99.90
28010;DHT22;15334;49.494;8.410;2023-02-01T12:20:59;8.20;99.90
28010;DHT22;15334;49.494;8.410;2023-02-01T12:23:50;8.10;99.90
28010;DHT22;15334;49.494;8.410;2023-02-01T12:26:44;8.10;99.90
28010;DHT22;15334;49.494;8.410;2023-02-01T12:29:40;8.10;99.90
28010;DHT22;15334;49.494;8.410;2023-02-01T12:32:21;8.10;99.90
28010;DHT22;15334;49.494;8.410;2023-02-01T12:35:14;8.10;99.90
28010;DHT22;15334;49.494;8.410;2023-02-01T12:37:56;8.10;99.90
28010;DHT22;15334;49.494;8.410;2023-02-01T12:40:35;8.10;99.90
28010;DHT22;15334;49.494;8.410;2023-02-01T12:43:11;8.10;99.90
28010;DHT22;15334;49.494;8.410;2023-02-01T12:45:43;8.00;99.90
28010;DHT22;15334;49.494;8.410;2023-02-01T12:48:25;8.00;99.90
28010;DHT22;15334;49.494;8.410;2023-02-01T12:50:58;8.00;99.90
28010;DHT22;15334;49.494;8.410;2023-02-01T12:53:39;7.90;99.90
28010;DHT22;15334;49.494;8.410;2023-02-01T12:56:16;7.90;99.90
28010;DHT22;15334;49.494;8.410;2023-02-01T12:58:50;7.90;99.90
28010;DHT22;15334;49.494;8.410;2023-02-01T13:01:25;8.00;99.90
28010;DHT22;15334;49.494;8.410;2023-02-01T13:03:59;8.00;99.90
28010;DHT22;15334;49.494;8.410;2023-02-01T13:06:41;7.90;99.90
28010;DHT22;15334;49.494;8.410;2023-02-01T13:09:18;8.00;99.90
28010;DHT22;15334;49.494;8.410;2023-02-01T13:11:48;8.00;99.90
28010;DHT22;15334;49.494;8.410;2023-02-01T13:14:25;8.00;99.90
28010;DHT22;15334;49.494;8.410;2023-02-01T13:16:59;8.10;99.90
28010;DHT22;15334;49.494;8.410;2023-02-01T13:19:40;8.00;99.90
28010;DHT22;15334;49.494;8.410;2023-02-01T13:22:13;8.00;99.90
28010;DHT22;15334;49.494;8.410;2023-02-01T13:24:45;8.00;99.90
28010;DHT22;15334;49.494;8.410;2023-02-01T13:27:16;8.10;99.90
28010;DHT22;15334;49.494;8.410;2023-02-01T13:29:50;8.00;99.90
28010;DHT22;15334;49.494;8.410;2023-02-01T13:32:39;8.00;99.90
28010;DHT22;15334;49.494;8.410;2023-02-01T13:35:58;8.00;99.90
28010;DHT22;15334;49.494;8.410;2023-02-01T13:39:02;7.90;99.90
28010;DHT22;15334;49.494;8.410;2023-02-01T13:41:35;7.90;99.90
28010;DHT22;15334;49.494;8.410;2023-02-01T13:44:11;8.00;99.90
28010;DHT22;15334;49.494;8.410;2023-02-01T13:46:44;8.00;99.90
28010;DHT22;15334;49.494;8.410;2023-02-01T13:49:20;8.00;99.90
28010;DHT22;15334;49.494;8.410;2023-02-01T13:51:51;8.00;99.90
28010;DHT22;15334;49.494;8.410;2023-02-01T13:54:29;8.10;99.90
28010;DHT22;15334;49.494;8.410;2023-02-01T13:56:58;8.10;99.90
28010;DHT22;15334;49.494;8.410;2023-02-01T13:59:50;8.10;99.90
28010;DHT22;15334;49.494;8.410;2023-02-01T14:02:49;8.00;99.90
28010;DHT22;15334;49.494;8.410;2023-02-01T14:08:44;8.00;99.90
28010;DHT22;15334;49.494;8.410;2023-02-01T14:11:36;8.10;99.90
28010;DHT22;15334;49.494;8.410;2023-02-01T14:17:36;8.10;99.90
28010;DHT22;15334;49.494;8.410;2023-02-01T14:23:16;8.10;99.90
28010;DHT22;15334;49.494;8.410;2023-02-01T14:25:45;8.10;99.90
28010;DHT22;15334;49.494;8.410;2023-02-01T14:28:24;8.10;99.90
28010;DHT22;15334;49.494;8.410;2023-02-01T14:30:54;8.10;99.90
28010;DHT22;15334;49.494;8.410;2023-02-01T14:33:25;8.10;99.90
28010;DHT22;15334;49.494;8.410;2023-02-01T14:36:04;8.10;99.90
28010;DHT22;15334;49.494;8.410;2023-02-01T14:38:35;8.20;99.90
28010;DHT22;15334;49.494;8.410;2023-02-01T14:41:26;8.20;99.90
28010;DHT22;15334;49.494;8.410;2023-02-01T14:44:23;8.20;99.90
28010;DHT22;15334;49.494;8.410;2023-02-01T14:50:03;8.20;99.90
28010;DHT22;15334;49.494;8.410;2023-02-01T14:52:34;8.20;99.90
28010;DHT22;15334;49.494;8.410;2023-02-01T14:55:08;8.20;99.90
28010;DHT22;15334;49.494;8.410;2023-02-01T14:57:39;8.20;99.90
28010;DHT22;15334;49.494;8.410;2023-02-01T15:00:18;8.20;99.90
28010;DHT22;15334;49.494;8.410;2023-02-01T15:02:47;8.30;99.90
28010;DHT22;15334;49.494;8.410;2023-02-01T15:05:29;8.40;99.90
28010;DHT22;15334;49.494;8.410;2023-02-01T15:08:03;8.40;99.90
28010;DHT22;15334;49.494;8.410;2023-02-01T15:10:40;8.60;99.90
28010;DHT22;15334;49.494;8.410;2023-02-01T15:13:19;8.60;99.90
28010;DHT22;15334;49.494;8.410;2023-02-01T15:16:03;8.60;99.90
28010;DHT22;15334;49.494;8.410;2023-02-01T15:18:34;8.60;99.90
28010;DHT22;15334;49.494;8.410;2023-02-01T15:21:04;8.60;99.90
28010;DHT22;15334;49.494;8.410;2023-02-01T15:24:10;8.60;99.90
28010;DHT22;15334;49.494;8.410;2023-02-01T15:26:38;8.60;99.90
28010;DHT22;15334;49.494;8.410;2023-02-01T15:29:11;8.60;99.90
28010;DHT22;15334;49.494;8.410;2023-02-01T15:31:41;8.60;99.90
28010;DHT22;15334;49.494;8.410;2023-02-01T15:34:12;8.60;99.90
28010;DHT22;15334;49.494;8.410;2023-02-01T15:36:41;8.50;99.90
28010;DHT22;15334;49.494;8.410;2023-02-01T15:39:28;8.50;99.90
28010;DHT22;15334;49.494;8.410;2023-02-01T15:41:59;8.40;99.90
28010;DHT22;15334;49.494;8.410;2023-02-01T15:44:32;8.40;99.90
28010;DHT22;15334;49.494;8.410;2023-02-01T15:47:12;8.30;99.90
28010;DHT22;15334;49.494;8.410;2023-02-01T15:49:41;8.30;99.90
28010;DHT22;15334;49.494;8.410;2023-02-01T15:52:22;8.30;99.90
28010;DHT22;15334;49.494;8.410;2023-02-01T15:54:54;8.20;99.90
28010;DHT22;15334;49.494;8.410;2023-02-01T15:57:26;8.20;99.90
28010;DHT22;15334;49.494;8.410;2023-02-01T15:59:59;8.10;99.90
28010;DHT22;15334;49.494;8.410;2023-02-01T16:02:36;8.10;99.90
28010;DHT22;15334;49.494;8.410;2023-02-01T16:05:25;8.10;99.90
28010;DHT22;15334;49.494;8.410;2023-02-01T16:07:58;8.00;99.90
28010;DHT22;15334;49.494;8.410;2023-02-01T16:10:31;8.00;99.90
28010;DHT22;15334;49.494;8.410;2023-02-01T16:13:08;8.00;99.90
28010;DHT22;15334;49.494;8.410;2023-02-01T16:15:36;8.00;99.90
28010;DHT22;15334;49.494;8.410;2023-02-01T16:18:07;7.90;99.90
28010;DHT22;15334;49.494;8.410;2023-02-01T16:20:37;7.90;99.90
28010;DHT22;15334;49.494;8.410;2023-02-01T16:23:09;7.90;99.90
28010;DHT22;15334;49.494;8.410;2023-02-01T16:25:38;7.90;99.90
28010;DHT22;15334;49.494;8.410;2023-02-01T16:28:10;7.80;99.90
28010;DHT22;15334;49.494;8.410;2023-02-01T16:30:38;7.80;99.90
28010;DHT22;15334;49.494;8.410;2023-02-01T16:33:11;7.80;99.90
28010;DHT22;15334;49.494;8.410;2023-02-01T16:35:45;7.80;99.90
28010;DHT22;15334;49.494;8.410;2023-02-01T16:38:15;7.80;99.90
28010;DHT22;15334;49.494;8.410;2023-02-01T16:40:46;7.80;99.90
28010;DHT22;15334;49.494;8.410;2023-02-01T16:43:15;7.80;99.90
28010;DHT22;15334;49.494;8.410;2023-02-01T16:45:46;7.80;99.90
28010;DHT22;15334;49.494;8.410;2023-02-01T16:48:25;7.80;99.90